Time;durP1;ratioP1;P1;durP2;ratioP2;P2;SDS_P1;SDS_P2;PMS_P1;PMS_P2;Temp;Humidity;BMP_temperature;BMP_pressure;BME280_temperature;BME280_humidity;BME280_pressure;Samples;Min_cycle;Max_cycle;Signal;HPM_P1;HPM_P2
2022/08/26 00:00:33;;;;;;;2.38;1.40;;;27.80;50.50;;;;;;5023699;28;20029;-53
2022/08/26 00:02:59;;;;;;;1.67;1.38;;;27.80;51.20;;;;;;5031114;28;20064;-56
2022/08/26 00:05:26;;;;;;;3.38;1.55;;;27.80;50.50;;;;;;5023304;28;21349;-53
2022/08/26 00:07:52;;;;;;;2.25;1.50;;;27.80;50.60;;;;;;5017745;28;20069;-53
2022/08/26 00:10:19;;;;;;;3.53;1.63;;;27.80;50.60;;;;;;5016365;28;20415;-55
2022/08/26 00:12:45;;;;;;;2.88;1.40;;;27.80;50.60;;;;;;5017333;28;20034;-56
2022/08/26 00:15:14;;;;;;;1.80;1.20;;;27.80;50.70;;;;;;5016095;28;20029;-53
2022/08/26 00:17:40;;;;;;;2.85;1.52;;;27.80;50.80;;;;;;5016225;28;20038;-54
2022/08/26 00:20:09;;;;;;;2.05;1.50;;;27.80;50.80;;;;;;5020112;28;20037;-51
2022/08/26 00:22:36;;;;;;;2.47;1.33;;;27.80;50.80;;;;;;5022316;28;20048;-53
2022/08/26 00:25:03;;;;;;;5.15;1.60;;;27.80;50.90;;;;;;5015221;28;20034;-51
2022/08/26 00:27:32;;;;;;;1.77;1.27;;;27.80;50.90;;;;;;5020670;28;20044;-53
2022/08/26 00:29:59;;;;;;;2.03;1.30;;;27.80;51.00;;;;;;5035466;28;20033;-53
2022/08/26 00:32:25;;;;;;;2.72;1.13;;;27.80;51.00;;;;;;5032348;28;20033;-50
2022/08/26 00:34:51;;;;;;;2.55;1.30;;;27.70;51.00;;;;;;5018899;28;20034;-55
2022/08/26 00:37:17;;;;;;;2.22;1.55;;;27.70;51.00;;;;;;5035823;28;20048;-55
2022/08/26 00:39:43;;;;;;;2.17;1.30;;;27.70;51.00;;;;;;5021599;28;20377;-54
2022/08/26 00:42:09;;;;;;;2.42;1.40;;;27.80;51.20;;;;;;5023466;28;20035;-55
2022/08/26 00:44:35;;;;;;;2.15;1.20;;;27.70;51.10;;;;;;5019047;28;20045;-53
2022/08/26 00:47:06;;;;;;;2.35;1.20;;;27.80;51.20;;;;;;5033407;28;20415;-53
2022/08/26 00:49:42;;;;;;;1.50;1.10;;;27.70;51.10;;;;;;5027864;28;20034;-56
2022/08/26 00:52:14;;;;;;;1.98;1.02;;;27.70;51.10;;;;;;5033073;28;20061;-51
2022/08/26 00:54:45;;;;;;;1.75;1.27;;;27.70;51.20;;;;;;5034328;28;20029;-54
2022/08/26 00:57:16;;;;;;;1.45;1.00;;;27.70;51.20;;;;;;5014637;28;20449;-52
2022/08/26 01:00:02;;;;;;;2.03;1.13;;;27.70;51.30;;;;;;5020269;28;20048;-53
2022/08/26 01:02:28;;;;;;;2.22;1.20;;;27.70;51.30;;;;;;5032115;28;20136;-54
2022/08/26 01:04:57;;;;;;;1.90;1.10;;;27.70;51.40;;;;;;5031953;28;20117;-53
2022/08/26 01:07:29;;;;;;;2.22;1.20;;;27.70;51.40;;;;;;5031708;28;20041;-55
2022/08/26 01:09:56;;;;;;;1.88;1.08;;;27.70;51.40;;;;;;5033702;28;20133;-55
2022/08/26 01:12:23;;;;;;;2.58;1.40;;;27.70;51.50;;;;;;5024489;28;20404;-51
2022/08/26 01:14:50;;;;;;;1.83;1.10;;;27.70;51.50;;;;;;5022698;28;20044;-56
2022/08/26 01:17:16;;;;;;;2.08;1.20;;;27.70;51.50;;;;;;5033828;28;20044;-50
2022/08/26 01:19:51;;;;;;;2.85;1.27;;;27.70;51.50;;;;;;5016614;28;20037;-51
2022/08/26 01:22:24;;;;;;;2.60;1.17;;;27.70;51.50;;;;;;5020967;28;20087;-53
2022/08/26 01:24:50;;;;;;;1.88;1.00;;;27.70;51.60;;;;;;5022593;28;20049;-52
2022/08/26 01:27:18;;;;;;;2.25;1.38;;;27.70;51.60;;;;;;5033068;28;20033;-51
2022/08/26 01:29:47;;;;;;;1.58;1.23;;;27.70;51.60;;;;;;5017072;28;20337;-54
2022/08/26 01:32:20;;;;;;;2.90;1.27;;;27.70;51.70;;;;;;5028372;28;20026;-54
2022/08/26 01:34:47;;;;;;;5.00;0.90;;;27.70;51.60;;;;;;5019937;28;20043;-56
2022/08/26 01:37:17;;;;;;;2.10;0.95;;;27.70;51.70;;;;;;5023430;28;20033;-54
2022/08/26 01:39:47;;;;;;;2.88;1.20;;;27.70;51.80;;;;;;5024415;28;20512;-53
2022/08/26 01:42:14;;;;;;;2.35;1.20;;;27.70;51.80;;;;;;5033392;28;20033;-53
2022/08/26 01:44:45;;;;;;;1.75;1.00;;;27.60;51.80;;;;;;5034675;28;20075;-53
2022/08/26 01:47:14;;;;;;;1.77;1.00;;;27.60;51.80;;;;;;5022792;28;20341;-53
2022/08/26 01:49:42;;;;;;;1.70;1.02;;;27.60;51.80;;;;;;5019142;28;20430;-56
2022/08/26 01:52:11;;;;;;;1.45;0.98;;;27.60;51.80;;;;;;5028197;28;20395;-51
2022/08/26 01:54:37;;;;;;;2.50;1.27;;;27.60;51.80;;;;;;5028342;28;20033;-50
2022/08/26 01:57:03;;;;;;;1.17;0.75;;;27.60;51.80;;;;;;5031549;28;20042;-53
2022/08/26 01:59:29;;;;;;;1.15;0.80;;;27.60;51.80;;;;;;5022748;28;20049;-54
2022/08/26 02:01:56;;;;;;;1.33;0.90;;;27.60;51.80;;;;;;5029398;28;20046;-53
2022/08/26 02:04:32;;;;;;;1.88;0.70;;;27.60;51.90;;;;;;5014952;28;20099;-54
2022/08/26 02:07:01;;;;;;;1.45;1.02;;;27.60;51.90;;;;;;5030902;28;20045;-56
2022/08/26 02:09:27;;;;;;;2.15;1.00;;;27.60;51.90;;;;;;5034571;28;20029;-53
2022/08/26 02:11:53;;;;;;;1.52;0.80;;;27.60;51.90;;;;;;5033064;28;20368;-55
2022/08/26 02:14:29;;;;;;;3.72;1.08;;;27.60;51.90;;;;;;5030053;28;20030;-49
2022/08/26 02:16:55;;;;;;;1.45;0.80;;;27.60;51.90;;;;;;5023043;28;20034;-53
2022/08/26 02:19:28;;;;;;;1.98;0.90;;;27.60;51.90;;;;;;5033867;28;20049;-50
2022/08/26 02:21:54;;;;;;;1.80;0.90;;;27.60;52.00;;;;;;5031814;28;20038;-50
2022/08/26 02:24:27;;;;;;;1.77;0.80;;;27.60;52.10;;;;;;5020895;28;20168;-50
2022/08/26 02:26:53;;;;;;;2.03;1.00;;;27.60;52.10;;;;;;5029949;28;20373;-55
2022/08/26 02:29:31;;;;;;;1.65;1.13;;;27.60;52.20;;;;;;5015890;28;20049;-53
2022/08/26 02:31:57;;;;;;;2.17;0.90;;;27.60;52.20;;;;;;5018104;28;20109;-54
2022/08/26 02:34:30;;;;;;;1.20;0.65;;;27.60;52.20;;;;;;5034615;28;20022;-53
2022/08/26 02:37:00;;;;;;;2.13;0.90;;;27.60;52.20;;;;;;5016785;28;20053;-55
2022/08/26 02:39:28;;;;;;;2.38;0.90;;;27.60;52.20;;;;;;5020707;28;20034;-54
2022/08/26 02:41:54;;;;;;;1.25;0.65;;;27.60;52.30;;;;;;5020445;28;20441;-55
2022/08/26 02:44:20;;;;;;;1.65;0.80;;;27.50;52.20;;;;;;5032457;28;20080;-53
2022/08/26 02:46:46;;;;;;;1.45;0.70;;;27.60;52.30;;;;;;5022198;28;20042;-55
2022/08/26 02:49:12;;;;;;;3.08;1.08;;;27.60;52.20;;;;;;5017946;28;20034;-50
2022/08/26 02:51:38;;;;;;;2.70;1.00;;;27.60;52.30;;;;;;5030766;28;20030;-54
2022/08/26 02:54:04;;;;;;;3.45;1.27;;;27.50;52.20;;;;;;5032119;28;20448;-55
2022/08/26 02:56:32;;;;;;;2.30;1.10;;;27.60;52.30;;;;;;5021297;28;20410;-54
2022/08/26 02:58:57;;;;;;;1.30;0.70;;;27.50;52.30;;;;;;5021092;28;20045;-52
2022/08/26 03:01:26;;;;;;;1.67;0.80;;;27.50;52.30;;;;;;5029009;28;20026;-52
2022/08/26 03:03:53;;;;;;;1.75;0.70;;;27.60;52.40;;;;;;5030784;28;20425;-54
2022/08/26 03:06:19;;;;;;;1.77;0.70;;;27.60;52.50;;;;;;5025060;28;20081;-54
2022/08/26 03:08:45;;;;;;;1.60;0.70;;;27.50;52.40;;;;;;5026955;28;20029;-55
2022/08/26 03:11:11;;;;;;;1.48;0.70;;;27.50;52.40;;;;;;5017631;28;20094;-52
2022/08/26 03:13:39;;;;;;;2.75;0.80;;;27.60;52.50;;;;;;5028378;28;20057;-55
2022/08/26 03:16:05;;;;;;;2.00;0.70;;;27.50;52.40;;;;;;5025488;28;20045;-53
2022/08/26 03:18:31;;;;;;;1.52;0.65;;;27.50;52.40;;;;;;5017078;28;20025;-54
2022/08/26 03:20:58;;;;;;;2.30;0.82;;;27.50;52.40;;;;;;5026847;28;20041;-53
2022/08/26 03:23:24;;;;;;;1.75;0.60;;;27.50;52.40;;;;;;5025895;28;20037;-55
2022/08/26 03:25:51;;;;;;;2.13;0.90;;;27.50;52.30;;;;;;5017309;28;20038;-53
2022/08/26 03:28:17;;;;;;;1.52;0.60;;;27.50;52.30;;;;;;5028233;28;20033;-53
2022/08/26 03:30:43;;;;;;;3.40;0.80;;;27.50;52.40;;;;;;5032720;28;20038;-55
2022/08/26 03:33:10;;;;;;;1.48;0.57;;;27.50;52.40;;;;;;5017507;28;20040;-55
2022/08/26 03:35:38;;;;;;;1.00;0.73;;;27.50;52.40;;;;;;5023715;28;20045;-53
2022/08/26 03:38:05;;;;;;;2.65;0.70;;;27.50;52.40;;;;;;5026823;28;20041;-54
2022/08/26 03:40:34;;;;;;;1.65;0.52;;;27.50;52.40;;;;;;5017556;28;20076;-54
2022/08/26 03:43:02;;;;;;;2.65;0.80;;;27.50;52.40;;;;;;5017143;28;20057;-54
2022/08/26 03:45:28;;;;;;;0.88;0.55;;;27.50;52.40;;;;;;5020800;28;20326;-55
2022/08/26 03:47:55;;;;;;;2.83;0.80;;;27.50;52.50;;;;;;5033129;28;20033;-55
2022/08/26 03:50:22;;;;;;;1.77;0.70;;;27.50;52.50;;;;;;5018051;28;20446;-52
2022/08/26 03:52:50;;;;;;;1.27;0.60;;;27.50;52.50;;;;;;5022379;28;20026;-51
2022/08/26 03:55:17;;;;;;;2.15;0.80;;;27.50;52.50;;;;;;5034161;28;20201;-53
2022/08/26 03:57:43;;;;;;;2.00;0.65;;;27.50;52.50;;;;;;5032803;28;20120;-54
2022/08/26 04:00:13;;;;;;;2.30;0.77;;;27.50;52.60;;;;;;5018652;28;20125;-57
2022/08/26 04:02:44;;;;;;;1.75;0.73;;;27.50;52.60;;;;;;5032153;28;20041;-51
2022/08/26 04:05:13;;;;;;;1.25;0.60;;;27.50;52.60;;;;;;5027939;28;20074;-51
2022/08/26 04:07:39;;;;;;;2.78;0.60;;;27.50;52.60;;;;;;5025996;28;20073;-53
2022/08/26 04:10:06;;;;;;;2.70;0.82;;;27.50;52.60;;;;;;5028582;28;20029;-56
2022/08/26 04:12:32;;;;;;;1.15;0.60;;;27.40;52.60;;;;;;5027337;28;20026;-56
2022/08/26 04:14:58;;;;;;;1.85;0.60;;;27.40;52.60;;;;;;5035045;28;20424;-54
2022/08/26 04:17:25;;;;;;;1.75;0.70;;;27.50;52.70;;;;;;5022840;28;20057;-55
2022/08/26 04:19:52;;;;;;;2.63;0.70;;;27.50;52.70;;;;;;5015916;28;20061;-52
2022/08/26 04:22:18;;;;;;;2.45;0.52;;;27.40;52.50;;;;;;5018976;28;20030;-56
2022/08/26 04:24:45;;;;;;;1.92;0.60;;;27.40;52.60;;;;;;5034643;28;20090;-51
2022/08/26 04:27:11;;;;;;;1.75;0.70;;;27.50;52.50;;;;;;5016356;28;20049;-51
2022/08/26 04:29:40;;;;;;;1.92;0.73;;;27.40;52.50;;;;;;5031396;28;20029;-53
2022/08/26 04:32:07;;;;;;;1.20;0.40;;;27.40;52.50;;;;;;5032337;28;20116;-56
2022/08/26 04:34:34;;;;;;;2.17;0.60;;;27.40;52.50;;;;;;5030694;28;20037;-52
2022/08/26 04:37:00;;;;;;;2.03;0.60;;;27.40;52.50;;;;;;5017261;28;20072;-55
2022/08/26 04:39:27;;;;;;;0.80;0.50;;;27.40;52.50;;;;;;5028405;28;20052;-50
2022/08/26 04:41:55;;;;;;;1.75;0.70;;;27.40;52.40;;;;;;5034471;28;20360;-51
2022/08/26 04:44:24;;;;;;;0.80;0.40;;;27.40;52.50;;;;;;5036098;28;20048;-55
2022/08/26 04:46:51;;;;;;;1.45;0.50;;;27.40;52.50;;;;;;5018056;28;20080;-55
2022/08/26 04:49:17;;;;;;;2.15;0.70;;;27.40;52.50;;;;;;5031625;28;20449;-54
2022/08/26 04:51:42;;;;;;;1.35;0.50;;;27.40;52.50;;;;;;5034621;28;20048;-54
2022/08/26 04:54:08;;;;;;;2.65;0.60;;;27.40;52.50;;;;;;5029864;28;20441;-52
2022/08/26 04:56:37;;;;;;;1.02;0.47;;;27.40;52.50;;;;;;5023045;28;20033;-50
2022/08/26 04:59:06;;;;;;;1.23;0.60;;;27.40;52.50;;;;;;5028555;28;20344;-49
2022/08/26 05:01:33;;;;;;;1.55;0.63;;;27.40;52.50;;;;;;5031936;28;20057;-53
2022/08/26 05:04:01;;;;;;;1.60;0.60;;;27.40;52.50;;;;;;5022675;28;20041;-55
2022/08/26 05:06:27;;;;;;;1.05;0.40;;;27.40;52.50;;;;;;5022674;28;20056;-53
2022/08/26 05:08:53;;;;;;;1.75;0.45;;;27.30;52.40;;;;;;5026085;28;20116;-55
2022/08/26 05:11:20;;;;;;;1.05;0.43;;;27.40;52.50;;;;;;5019519;28;20087;-53
2022/08/26 05:13:45;;;;;;;2.30;0.80;;;27.30;52.40;;;;;;5015496;28;20044;-54
2022/08/26 05:16:14;;;;;;;1.42;0.57;;;27.30;52.40;;;;;;5024695;28;20116;-53
2022/08/26 05:18:42;;;;;;;2.15;0.50;;;27.30;52.40;;;;;;5014147;28;20120;-53
2022/08/26 05:21:16;;;;;;;1.88;0.60;;;27.30;52.40;;;;;;5027764;28;20029;-54
2022/08/26 05:23:42;;;;;;;0.70;0.50;;;27.30;52.40;;;;;;5026034;28;20112;-53
2022/08/26 05:26:08;;;;;;;1.70;0.68;;;27.30;52.40;;;;;;5024960;28;20124;-52
2022/08/26 05:28:34;;;;;;;1.70;0.60;;;27.30;52.40;;;;;;5033832;28;20057;-53
2022/08/26 05:31:00;;;;;;;2.00;0.60;;;27.30;52.40;;;;;;5024910;28;20123;-52
2022/08/26 05:33:26;;;;;;;1.55;0.77;;;27.30;52.40;;;;;;5027776;28;20030;-53
2022/08/26 05:35:52;;;;;;;2.97;0.80;;;27.30;52.40;;;;;;5032254;28;20022;-51
2022/08/26 05:38:20;;;;;;;1.17;0.52;;;27.30;52.40;;;;;;5015319;28;20092;-55
2022/08/26 05:40:49;;;;;;;1.60;0.60;;;27.30;52.50;;;;;;5030839;28;20097;-52
2022/08/26 05:43:16;;;;;;;1.70;0.65;;;27.30;52.50;;;;;;5015027;28;20073;-49
2022/08/26 05:45:45;;;;;;;1.38;0.60;;;27.30;52.50;;;;;;5020189;28;20033;-51
2022/08/26 05:48:11;;;;;;;2.50;0.70;;;27.30;52.50;;;;;;5029030;28;20036;-49
2022/08/26 05:50:49;;;;;;;1.55;0.50;;;27.30;52.50;;;;;;5014398;28;20084;-52
2022/08/26 05:53:17;;;;;;;2.83;0.70;;;27.30;52.50;;;;;;5022472;28;20026;-52
2022/08/26 05:55:46;;;;;;;2.03;0.80;;;27.30;52.50;;;;;;5021793;28;20456;-52
2022/08/26 05:58:11;;;;;;;1.27;0.45;;;27.30;52.50;;;;;;5033756;28;20037;-53
2022/08/26 06:00:38;;;;;;;1.13;0.70;;;27.30;52.50;;;;;;5025469;28;20026;-54
2022/08/26 06:03:04;;;;;;;1.70;0.45;;;27.30;52.60;;;;;;5018818;28;20026;-54
2022/08/26 06:05:30;;;;;;;2.72;0.75;;;27.30;52.60;;;;;;5033244;28;20391;-53
2022/08/26 06:08:13;;;;;;;2.22;0.60;;;27.30;52.60;;;;;;5034890;28;20163;-54
2022/08/26 06:10:43;;;;;;;1.48;0.50;;;27.30;52.60;;;;;;5030669;28;20064;-54
2022/08/26 06:13:09;;;;;;;1.75;0.60;;;27.30;52.60;;;;;;5026665;28;20030;-52
2022/08/26 06:15:40;;;;;;;2.10;0.60;;;27.30;52.60;;;;;;5020121;28;20124;-52
2022/08/26 06:18:06;;;;;;;1.33;0.40;;;27.30;52.60;;;;;;5024757;28;20357;-56
2022/08/26 06:20:32;;;;;;;2.70;0.70;;;27.30;52.60;;;;;;5024812;28;20030;-53
2022/08/26 06:25:43;;;;;;;;;;;27.30;52.70;;;;;;5024633;28;20356;-56
2022/08/26 06:28:09;;;;;;;1.80;0.70;;;27.30;52.70;;;;;;5028601;28;19909;-56
2022/08/26 06:30:39;;;;;;;1.75;0.63;;;27.30;52.70;;;;;;5035566;28;20104;-54
2022/08/26 06:33:06;;;;;;;1.73;0.70;;;27.30;52.90;;;;;;5026331;28;20030;-55
2022/08/26 06:35:40;;;;;;;2.05;0.70;;;27.30;52.90;;;;;;5028103;28;20033;-56
2022/08/26 06:38:08;;;;;;;1.70;0.80;;;27.30;52.90;;;;;;5030335;28;20426;-55
2022/08/26 06:40:42;;;;;;;1.92;0.70;;;27.30;52.80;;;;;;5024316;28;20041;-54
2022/08/26 06:43:09;;;;;;;2.08;0.77;;;27.30;52.70;;;;;;5024283;28;20163;-50
2022/08/26 06:45:35;;;;;;;0.70;0.40;;;27.30;52.70;;;;;;5024453;28;20033;-55
2022/08/26 06:48:01;;;;;;;4.07;1.00;;;27.30;52.60;;;;;;5030862;28;20467;-53
2022/08/26 06:50:26;;;;;;;2.35;0.80;;;27.30;52.50;;;;;;5029961;28;20091;-52
2022/08/26 06:52:53;;;;;;;1.75;0.73;;;27.30;52.40;;;;;;5026739;28;20087;-52
2022/08/26 06:55:18;;;;;;;2.33;0.73;;;27.30;52.40;;;;;;5000603;28;20048;-54
2022/08/26 06:57:44;;;;;;;1.98;0.60;;;27.30;52.30;;;;;;5024353;28;20471;-52
2022/08/26 07:00:11;;;;;;;2.88;0.70;;;27.30;52.30;;;;;;5022927;28;20044;-54
2022/08/26 07:02:37;;;;;;;3.20;0.90;;;27.30;52.30;;;;;;5025426;28;20456;-54
2022/08/26 07:05:04;;;;;;;1.65;0.55;;;27.30;52.20;;;;;;5021639;28;20109;-56
2022/08/26 07:07:30;;;;;;;1.38;0.70;;;27.30;52.20;;;;;;5024579;28;20145;-56
2022/08/26 07:09:56;;;;;;;2.13;0.70;;;27.30;52.10;;;;;;5025511;28;20480;-55
2022/08/26 07:12:22;;;;;;;1.25;0.50;;;27.40;52.10;;;;;;5026748;28;20057;-54
2022/08/26 07:14:48;;;;;;;2.63;0.80;;;27.40;52.10;;;;;;5028396;28;20079;-52
2022/08/26 07:17:14;;;;;;;2.70;0.70;;;27.30;52.00;;;;;;5025216;28;20066;-53
2022/08/26 07:19:41;;;;;;;2.38;0.70;;;27.40;52.20;;;;;;5025570;28;20026;-54
2022/08/26 07:22:07;;;;;;;1.83;0.68;;;27.30;52.10;;;;;;5022849;28;20030;-53
2022/08/26 07:24:35;;;;;;;2.80;0.90;;;27.40;52.20;;;;;;5024742;28;20631;-52
2022/08/26 07:27:02;;;;;;;1.55;0.73;;;27.40;52.20;;;;;;5021932;28;20044;-56
2022/08/26 07:29:29;;;;;;;2.30;0.82;;;27.40;52.20;;;;;;5019193;28;20026;-55
2022/08/26 07:31:55;;;;;;;2.20;0.50;;;27.40;52.20;;;;;;5023913;28;20026;-53
2022/08/26 07:34:21;;;;;;;2.05;0.52;;;27.40;52.10;;;;;;5024517;28;20468;-50
2022/08/26 07:36:49;;;;;;;3.10;0.90;;;27.40;52.00;;;;;;5020586;28;20032;-58
2022/08/26 07:39:15;;;;;;;2.90;1.08;;;27.40;52.00;;;;;;5019459;28;20036;-54
2022/08/26 07:41:41;;;;;;;1.23;0.60;;;27.40;52.00;;;;;;5022480;28;20025;-58
2022/08/26 07:44:11;;;;;;;1.92;1.00;;;27.40;52.00;;;;;;5028894;28;20066;-53
2022/08/26 07:46:36;;;;;;;3.00;0.70;;;27.40;51.90;;;;;;5017920;28;20350;-51
2022/08/26 07:49:02;;;;;;;2.45;0.77;;;27.40;51.80;;;;;;5031031;28;20059;-53
2022/08/26 07:51:28;;;;;;;2.15;0.60;;;27.40;51.80;;;;;;5031198;28;20405;-52
2022/08/26 07:53:54;;;;;;;1.65;0.60;;;27.40;51.80;;;;;;5024975;28;20459;-52
2022/08/26 07:56:21;;;;;;;1.70;0.60;;;27.50;51.80;;;;;;5026450;28;20056;-52
2022/08/26 07:58:48;;;;;;;2.47;0.85;;;27.40;51.80;;;;;;5030420;28;20033;-54
2022/08/26 08:01:14;;;;;;;1.38;0.70;;;27.40;51.80;;;;;;5027548;28;20026;-56
2022/08/26 08:03:40;;;;;;;0.88;0.50;;;27.40;51.80;;;;;;5021107;28;20053;-56
2022/08/26 08:06:06;;;;;;;1.88;0.77;;;27.40;51.70;;;;;;5024675;28;20091;-54
2022/08/26 08:08:34;;;;;;;2.15;0.60;;;27.40;51.70;;;;;;5018480;28;20022;-55
2022/08/26 08:11:01;;;;;;;1.13;0.70;;;27.50;51.70;;;;;;5016486;28;20370;-56
2022/08/26 08:13:28;;;;;;;2.00;0.57;;;27.50;51.70;;;;;;5016355;28;20033;-56
2022/08/26 08:15:53;;;;;;;3.22;1.00;;;27.50;51.70;;;;;;5022220;28;20064;-57
2022/08/26 08:18:19;;;;;;;2.33;0.60;;;27.50;51.70;;;;;;5020125;28;20026;-52
2022/08/26 08:20:45;;;;;;;2.47;0.70;;;27.50;51.70;;;;;;5016340;28;20076;-55
2022/08/26 08:23:11;;;;;;;1.30;0.50;;;27.40;51.60;;;;;;5023216;28;20053;-53
2022/08/26 08:25:37;;;;;;;1.95;0.57;;;27.50;51.60;;;;;;5036101;28;20036;-55
2022/08/26 08:28:03;;;;;;;1.38;0.40;;;27.50;51.50;;;;;;5036334;28;20341;-55
2022/08/26 08:30:29;;;;;;;2.58;0.40;;;27.50;51.50;;;;;;5036512;28;20322;-56
2022/08/26 08:32:55;;;;;;;1.13;0.70;;;27.50;51.50;;;;;;5032954;28;20053;-53
2022/08/26 08:35:21;;;;;;;2.65;0.85;;;27.50;51.50;;;;;;5036198;28;20061;-55
2022/08/26 08:37:53;;;;;;;1.67;0.55;;;27.50;51.50;;;;;;5035570;28;20049;-52
2022/08/26 08:40:20;;;;;;;1.67;0.50;;;27.50;51.50;;;;;;5036008;28;20029;-55
2022/08/26 08:42:55;;;;;;;2.17;0.70;;;27.50;51.50;;;;;;5033942;28;20029;-57
2022/08/26 08:45:24;;;;;;;1.42;0.60;;;27.50;51.50;;;;;;5035900;28;20038;-53
2022/08/26 08:47:59;;;;;;;2.88;0.85;;;27.50;51.50;;;;;;5024721;28;20029;-53
2022/08/26 08:50:36;;;;;;;1.02;0.50;;;27.50;51.60;;;;;;5027731;28;20396;-52
2022/08/26 08:53:17;;;;;;;1.38;0.50;;;27.50;51.60;;;;;;5020169;28;20183;-56
2022/08/26 08:55:50;;;;;;;3.17;0.80;;;27.50;51.60;;;;;;5020991;28;20033;-54
2022/08/26 08:58:22;;;;;;;2.38;0.60;;;27.50;51.60;;;;;;5025791;28;20095;-60
2022/08/26 09:00:58;;;;;;;2.25;0.70;;;27.50;51.60;;;;;;5032962;28;20364;-63
2022/08/26 09:03:46;;;;;;;1.20;0.43;;;27.50;51.70;;;;;;5017364;28;20029;-59
2022/08/26 09:06:19;;;;;;;3.47;0.90;;;27.50;51.70;;;;;;4997831;28;20052;-63
2022/08/26 09:08:48;;;;;;;2.15;0.68;;;27.50;51.60;;;;;;5024658;28;20026;-58
2022/08/26 09:11:15;;;;;;;8.82;0.77;;;27.60;51.70;;;;;;5015870;28;20425;-57
2022/08/26 09:13:50;;;;;;;4.63;0.60;;;27.70;51.60;;;;;;5025166;28;20108;-56
2022/08/26 09:16:38;;;;;;;8.35;0.73;;;27.80;51.60;;;;;;5035233;28;20444;-57
2022/08/26 09:19:29;;;;;;;4.00;0.85;;;27.90;51.40;;;;;;5024911;28;20140;-55
2022/08/26 09:21:58;;;;;;;5.70;0.90;;;28.00;51.10;;;;;;5024746;28;20026;-54
2022/08/26 09:24:25;;;;;;;2.28;0.90;;;28.10;50.90;;;;;;5031741;28;20124;-56
2022/08/26 09:26:51;;;;;;;2.05;0.55;;;28.20;50.80;;;;;;5035304;28;20034;-56
2022/08/26 09:29:17;;;;;;;4.15;1.00;;;28.20;50.50;;;;;;5015482;28;20060;-59
2022/08/26 09:31:43;;;;;;;1.27;0.65;;;28.30;50.60;;;;;;5029090;28;20086;-57
2022/08/26 09:34:18;;;;;;;2.65;0.70;;;28.30;50.40;;;;;;5034034;28;20079;-56
2022/08/26 09:36:47;;;;;;;1.95;0.60;;;28.40;50.40;;;;;;5035180;28;20147;-55
2022/08/26 09:39:35;;;;;;;1.83;0.80;;;28.50;50.30;;;;;;5029807;28;20037;-58
2022/08/26 09:42:19;;;;;;;4.30;0.75;;;28.50;50.30;;;;;;5031368;28;20021;-55
2022/08/26 09:44:53;;;;;;;;;;;28.50;50.20;;;;;;5016173;28;20044;-57
2022/08/26 09:47:31;;;;;;;1.70;0.50;;;28.60;50.30;;;;;;5020166;28;19909;-52
2022/08/26 09:50:05;;;;;;;4.28;0.47;;;28.60;50.20;;;;;;5022309;28;20472;-57
2022/08/26 09:52:31;;;;;;;1.25;0.60;;;28.60;50.20;;;;;;5014626;28;20503;-56
2022/08/26 09:55:04;;;;;;;2.40;0.65;;;28.60;50.10;;;;;;5018645;28;20029;-57
2022/08/26 09:57:34;;;;;;;2.50;0.70;;;28.60;50.00;;;;;;5031735;28;20061;-55
2022/08/26 10:00:00;;;;;;;1.83;0.55;;;28.60;49.90;;;;;;5021608;28;20071;-55
2022/08/26 10:02:32;;;;;;;1.55;0.60;;;28.60;49.90;;;;;;5018956;28;20148;-56
2022/08/26 10:05:00;;;;;;;4.05;0.50;;;28.70;49.80;;;;;;5018828;28;20037;-57
2022/08/26 10:07:43;;;;;;;2.17;0.70;;;28.70;49.80;;;;;;5029744;28;20077;-59
2022/08/26 10:10:17;;;;;;;7.72;1.70;;;28.70;49.70;;;;;;5027080;28;20104;-56
2022/08/26 10:13:07;;;;;;;6.72;1.25;;;28.80;49.70;;;;;;5026607;28;20022;-58
2022/08/26 10:16:02;;;;;;;4.78;0.93;;;28.80;49.70;;;;;;5019091;28;20049;-60
2022/08/26 10:18:32;;;;;;;6.22;0.90;;;28.80;49.60;;;;;;5022076;28;20539;-59
2022/08/26 10:21:41;;;;;;;5.78;0.70;;;28.80;49.50;;;;;;5036901;28;20026;-59
2022/08/26 10:24:09;;;;;;;2.00;0.80;;;28.90;49.50;;;;;;4970254;28;20046;-59
2022/08/26 10:26:47;;;;;;;3.97;0.82;;;28.90;49.40;;;;;;5017715;28;20034;-59
2022/08/26 10:29:34;;;;;;;3.85;1.00;;;28.90;49.90;;;;;;5030529;28;20381;-60
2022/08/26 10:32:05;;;;;;;4.93;0.82;;;28.90;49.30;;;;;;5018464;28;20061;-59
2022/08/26 10:34:32;;;;;;;4.38;0.60;;;28.90;49.20;;;;;;5030231;28;20025;-59
2022/08/26 10:37:07;;;;;;;2.65;0.75;;;28.90;49.20;;;;;;5021082;28;20038;-60
2022/08/26 10:39:56;;;;;;;3.60;0.90;;;28.90;49.10;;;;;;5018991;28;20330;-58
2022/08/26 10:42:31;;;;;;;3.33;0.60;;;28.90;49.00;;;;;;5019717;28;20130;-60
2022/08/26 10:45:13;;;;;;;1.63;0.60;;;28.90;49.00;;;;;;5024765;28;20022;-60
2022/08/26 10:48:03;;;;;;;2.67;0.75;;;29.00;48.90;;;;;;5018119;28;20034;-56
2022/08/26 10:50:36;;;;;;;2.88;0.75;;;29.00;48.90;;;;;;5020162;28;20104;-60
2022/08/26 10:53:13;;;;;;;1.15;0.60;;;29.00;48.80;;;;;;5026038;28;20040;-53
2022/08/26 10:56:04;;;;;;;1.13;0.47;;;29.00;48.70;;;;;;5024647;28;20463;-60
2022/08/26 10:58:54;;;;;;;2.78;0.77;;;29.00;48.60;;;;;;5035219;28;20044;-57
2022/08/26 11:01:41;;;;;;;2.53;0.60;;;29.00;48.60;;;;;;5021053;28;20034;-59
2022/08/26 11:04:36;;;;;;;1.42;0.77;;;29.00;48.50;;;;;;5025677;28;20069;-59
2022/08/26 11:07:38;;;;;;;2.38;0.60;;;29.00;48.50;;;;;;5018641;28;20057;-58
2022/08/26 11:10:24;;;;;;;1.23;0.60;;;29.00;48.40;;;;;;5017068;28;20031;-60
2022/08/26 11:12:51;;;;;;;1.38;0.60;;;29.00;48.30;;;;;;5019093;28;20453;-59
2022/08/26 11:15:20;;;;;;;1.23;0.63;;;29.00;48.30;;;;;;5020600;28;20040;-58
2022/08/26 11:17:46;;;;;;;2.85;0.70;;;29.00;48.20;;;;;;5021821;28;20349;-60
2022/08/26 11:20:36;;;;;;;2.38;0.60;;;29.00;48.20;;;;;;5021636;28;20022;-56
2022/08/26 11:23:36;;;;;;;2.13;0.90;;;29.00;48.10;;;;;;5021163;28;20479;-57
2022/08/26 11:26:07;;;;;;;2.58;0.90;;;29.00;48.20;;;;;;5005802;28;20034;-57
2022/08/26 11:28:48;;;;;;;1.27;0.55;;;29.00;48.30;;;;;;5022829;28;20104;-60
2022/08/26 11:31:24;;;;;;;2.55;0.93;;;29.00;48.30;;;;;;5019609;28;20102;-57
2022/08/26 11:33:57;;;;;;;1.65;0.38;;;29.00;48.40;;;;;;5021911;28;20060;-59
2022/08/26 11:36:35;;;;;;;2.08;0.63;;;29.00;48.40;;;;;;5017235;28;20434;-57
2022/08/26 11:39:27;;;;;;;7.80;0.80;;;29.00;48.50;;;;;;5022498;28;20421;-58
2022/08/26 11:41:58;;;;;;;10.25;0.98;;;29.10;48.60;;;;;;5023697;28;20034;-58
2022/08/26 11:44:37;;;;;;;3.25;0.50;;;29.10;48.70;;;;;;5020021;28;20038;-59
2022/08/26 11:47:04;;;;;;;3.42;0.60;;;29.10;48.80;;;;;;5036934;28;20120;-59
2022/08/26 11:49:31;;;;;;;2.83;1.08;;;29.10;48.90;;;;;;5027806;28;20029;-57
2022/08/26 11:52:21;;;;;;;1.73;0.60;;;29.10;48.90;;;;;;5027207;28;20094;-60
2022/08/26 11:55:04;;;;;;;7.45;0.60;;;29.10;48.90;;;;;;5013754;28;20456;-57
2022/08/26 11:57:34;;;;;;;1.55;0.60;;;29.20;48.90;;;;;;5018632;28;20076;-61
2022/08/26 12:00:00;;;;;;;4.10;0.85;;;29.20;48.90;;;;;;5022287;28;20053;-62
2022/08/26 12:02:26;;;;;;;4.95;0.70;;;29.20;48.90;;;;;;5028774;28;20091;-58
2022/08/26 12:04:54;;;;;;;2.65;0.90;;;29.20;48.90;;;;;;5028206;28;20027;-56
2022/08/26 12:07:28;;;;;;;2.00;0.73;;;29.20;48.80;;;;;;5029148;28;20045;-56
2022/08/26 12:09:58;;;;;;;1.85;0.70;;;29.30;48.80;;;;;;5028842;28;20025;-57
2022/08/26 12:12:31;;;;;;;0.88;0.55;;;29.30;48.70;;;;;;5026974;28;20056;-56
2022/08/26 12:15:20;;;;;;;1.53;0.60;;;29.30;48.70;;;;;;5029402;28;20359;-52
2022/08/26 12:17:46;;;;;;;1.52;0.60;;;29.30;48.60;;;;;;5027220;28;20320;-57
2022/08/26 12:20:30;;;;;;;1.95;0.57;;;29.30;48.60;;;;;;5030051;28;20041;-55
2022/08/26 12:22:58;;;;;;;2.03;0.70;;;29.30;48.50;;;;;;5022383;28;20041;-56
2022/08/26 12:25:24;;;;;;;1.40;0.40;;;29.30;48.50;;;;;;5029610;28;20053;-58
2022/08/26 12:27:50;;;;;;;1.83;0.50;;;29.30;48.50;;;;;;5028948;28;20479;-55
2022/08/26 12:30:23;;;;;;;1.25;0.50;;;29.30;48.50;;;;;;5028527;28;20057;-56
2022/08/26 12:33:10;;;;;;;3.13;0.80;;;29.30;48.50;;;;;;5023649;28;20025;-55
2022/08/26 12:35:39;;;;;;;1.60;0.68;;;29.30;48.60;;;;;;5027452;28;20053;-60
2022/08/26 12:38:07;;;;;;;2.05;0.70;;;29.20;48.50;;;;;;5019670;28;20051;-55
2022/08/26 12:40:35;;;;;;;2.10;0.82;;;29.20;48.60;;;;;;5029838;28;20029;-55
2022/08/26 12:43:06;;;;;;;1.05;0.47;;;29.20;48.60;;;;;;5027572;28;20037;-57
2022/08/26 12:45:55;;;;;;;2.50;0.70;;;29.20;48.60;;;;;;5025310;28;20488;-52
2022/08/26 12:48:32;;;;;;;2.13;0.60;;;29.20;48.60;;;;;;5024017;28;20053;-55
2022/08/26 12:51:00;;;;;;;1.90;0.77;;;29.20;48.70;;;;;;5028793;28;20452;-55
2022/08/26 12:53:29;;;;;;;2.10;0.60;;;29.20;48.70;;;;;;5025264;28;20033;-56
2022/08/26 12:56:19;;;;;;;2.00;0.60;;;29.20;48.70;;;;;;5026316;28;20162;-51
2022/08/26 12:59:00;;;;;;;1.75;0.45;;;29.20;48.70;;;;;;5025924;28;20433;-56
2022/08/26 13:01:41;;;;;;;2.20;0.63;;;29.20;48.70;;;;;;5024312;28;20039;-57
2022/08/26 13:04:27;;;;;;;1.13;0.47;;;29.10;49.20;;;;;;5024652;28;20049;-52
2022/08/26 13:07:12;;;;;;;1.52;0.40;;;29.10;48.60;;;;;;5026904;28;20045;-58